Time;durP1;ratioP1;P1;durP2;ratioP2;P2;SDS_P1;SDS_P2;PMS_P1;PMS_P2;Temp;Humidity;BMP_temperature;BMP_pressure;BME280_temperature;BME280_humidity;BME280_pressure;Samples;Min_cycle;Max_cycle;Signal;HPM_P1;HPM_P2
2022/04/30 00:01:46;;;;;;;61.88;32.88;;;;;;;4.70;62.16;101213.37;2041484;87;29401;-58
2022/04/30 00:04:49;;;;;;;68.02;34.63;;;;;;;4.68;62.13;101207.66;2041017;87;32268;-58
2022/04/30 00:07:51;;;;;;;63.52;33.00;;;;;;;4.65;62.56;101207.68;2035608;87;34258;-58
2022/04/30 00:10:53;;;;;;;66.82;34.35;;;;;;;4.61;62.52;101205.52;2035694;87;30875;-59
2022/04/30 00:13:55;;;;;;;71.10;35.15;;;;;;;4.59;62.47;101204.65;2036297;87;28194;-61
2022/04/30 00:16:57;;;;;;;71.75;35.85;;;;;;;4.58;62.41;101200.23;2036349;87;29088;-58
2022/04/30 00:20:00;;;;;;;69.58;36.88;;;;;;;4.56;62.76;101197.58;2036100;87;32238;-58
2022/04/30 00:23:02;;;;;;;70.42;36.05;;;;;;;4.55;62.64;101198.94;2036417;87;33646;-58
2022/04/30 00:26:04;;;;;;;73.02;34.40;;;;;;;4.54;62.77;101204.70;2035890;87;30106;-58
2022/04/30 00:29:07;;;;;;;68.90;35.40;;;;;;;4.53;62.78;101199.39;2035994;87;27630;-59
2022/04/30 00:32:09;;;;;;;70.87;36.15;;;;;;;4.53;62.91;101199.39;2036102;87;29063;-59
2022/04/30 00:35:11;;;;;;;80.32;35.85;;;;;;;4.53;62.95;101209.58;2036201;87;32235;-58
2022/04/30 00:38:15;;;;;;;71.67;37.78;;;;;;;4.52;63.21;101209.57;2035768;87;34052;-58
2022/04/30 00:41:18;;;;;;;75.60;37.70;;;;;;;4.52;63.00;101210.90;2036100;87;30446;-67
2022/04/30 00:44:21;;;;;;;78.52;36.73;;;;;;;4.51;63.35;101215.77;2036167;87;27726;-58
2022/04/30 00:47:24;;;;;;;70.95;35.35;;;;;;;4.50;63.24;101216.66;2036074;87;28667;-59
2022/04/30 00:50:29;;;;;;;74.60;37.13;;;;;;;4.50;63.24;101208.70;2035894;87;32353;-58
2022/04/30 00:53:31;;;;;;;69.45;35.73;;;;;;;4.51;63.37;101205.16;2036050;87;33787;-62
2022/04/30 00:56:49;;;;;;;69.40;35.17;;;;;;;4.52;63.43;101206.48;2035992;87;30238;-58
2022/04/30 01:00:01;;;;;;;64.95;34.92;;;;;;;4.53;63.52;101209.58;2035762;87;27750;-61
2022/04/30 01:03:03;;;;;;;76.67;37.33;;;;;;;4.53;64.01;101203.37;2035844;87;29487;-58
2022/04/30 01:06:06;;;;;;;71.05;35.83;;;;;;;4.54;64.31;101199.40;2026976;87;32296;-58
2022/04/30 01:09:08;;;;;;;69.22;35.90;;;;;;;4.58;64.49;101198.91;2081880;85;33892;-58
2022/04/30 01:12:10;;;;;;;71.87;38.80;;;;;;;4.60;64.23;101197.13;2082348;85;30467;-57
2022/04/30 01:15:13;;;;;;;71.92;37.00;;;;;;;4.62;64.31;101194.44;2082345;85;27715;-57
2022/04/30 01:18:15;;;;;;;67.53;35.75;;;;;;;4.63;64.67;101189.13;2081977;85;30814;-58
2022/04/30 01:21:19;;;;;;;69.22;35.00;;;;;;;4.66;64.49;101189.53;2082463;85;31992;-57
2022/04/30 01:24:23;;;;;;;67.82;35.00;;;;;;;4.67;64.47;101194.81;2082317;85;34089;-58
2022/04/30 01:27:28;;;;;;;66.30;36.30;;;;;;;4.68;64.45;101189.94;2082389;85;29642;-58
2022/04/30 01:30:30;;;;;;;72.35;38.00;;;;;;;4.70;64.53;101199.23;2082296;85;27638;-58
2022/04/30 01:40:19;;;;;;;69.75;37.38;;;;;;;4.69;65.01;101188.19;2012204;88;33674;-58
2022/04/30 01:43:22;;;;;;;74.37;37.05;;;;;;;4.70;64.94;101189.48;2012203;88;30581;-58
2022/04/30 01:46:24;;;;;;;66.05;34.10;;;;;;;4.70;65.02;101184.17;2012157;88;27758;-58
2022/04/30 01:49:26;;;;;;;66.10;33.80;;;;;;;4.71;65.09;101185.93;2011939;88;29311;-59
2022/04/30 01:52:29;;;;;;;65.08;31.93;;;;;;;4.72;65.19;101193.43;2011835;88;32288;-58
2022/04/30 01:55:32;;;;;;;68.87;32.75;;;;;;;4.70;64.96;101194.79;2012185;88;33365;-58
2022/04/30 01:58:34;;;;;;;64.82;34.20;;;;;;;4.70;65.14;101186.83;2012143;88;29820;-58
2022/04/30 02:01:38;;;;;;;64.65;33.58;;;;;;;4.72;65.11;101185.47;2012567;88;27745;-58
2022/04/30 02:04:43;;;;;;;71.27;34.50;;;;;;;4.74;65.13;101186.34;2012404;88;29632;-59
2022/04/30 02:07:49;;;;;;;;;;;;;;;4.72;65.08;101184.14;2004451;86;31395;-58
2022/04/30 02:10:51;;;;;;;55.10;29.52;;;;;;;4.70;65.18;101177.54;2000576;88;33402;-58
2022/04/30 02:13:53;;;;;;;63.73;30.23;;;;;;;4.69;65.03;101173.13;2020216;86;30769;-57
2022/04/30 02:16:55;;;;;;;60.70;31.85;;;;;;;4.68;65.05;101180.65;2065099;85;27661;-57
2022/04/30 02:23:22;;;;;;;54.42;29.05;;;;;;;4.63;64.92;101177.19;2064356;86;32226;-57
2022/04/30 02:26:25;;;;;;;57.45;30.60;;;;;;;4.62;64.99;101167.47;2064708;86;32973;-57
2022/04/30 02:29:27;;;;;;;61.02;31.23;;;;;;;4.60;64.91;101168.36;2064341;85;29683;-57
2022/04/30 02:32:44;;;;;;;56.95;30.62;;;;;;;4.57;65.03;101166.63;2064460;86;27665;-57
2022/04/30 02:35:47;;;;;;;62.15;33.98;;;;;;;4.53;65.15;101165.80;2064216;86;29965;-57
2022/04/30 02:38:50;;;;;;;62.38;32.48;;;;;;;4.51;65.33;101156.97;2012137;88;31047;-57
2022/04/30 02:41:52;;;;;;;59.85;32.50;;;;;;;4.49;65.60;101161.84;2064307;86;33678;-57
2022/04/30 02:44:54;;;;;;;54.63;30.08;;;;;;;4.47;65.69;101164.52;2012132;88;29648;-57
2022/04/30 02:47:56;;;;;;;56.88;31.50;;;;;;;4.46;65.45;101156.59;2064698;86;27648;-57
2022/04/30 02:51:00;;;;;;;62.33;31.37;;;;;;;4.45;65.50;101149.52;2012075;88;29518;-58
2022/04/30 02:54:02;;;;;;;67.27;32.15;;;;;;;4.45;65.52;101158.81;2064545;86;31026;-58
2022/04/30 02:57:05;;;;;;;61.63;32.75;;;;;;;4.43;65.68;101155.29;2046708;87;33788;-59
2022/04/30 03:00:09;;;;;;;57.15;30.65;;;;;;;4.41;65.70;101163.24;2011820;88;29919;-60
2022/04/30 03:03:12;;;;;;;59.95;30.48;;;;;;;4.39;65.60;101150.01;2064678;86;27699;-59
2022/04/30 03:06:17;;;;;;;66.12;33.88;;;;;;;4.38;65.74;101147.38;2012883;87;28644;-58
2022/04/30 03:09:20;;;;;;;46.65;25.32;;;;;;;4.35;65.96;101145.62;2082476;85;31816;-57
2022/04/30 03:12:22;;;;;;;58.13;29.35;;;;;;;4.35;66.00;101146.08;2081933;85;34354;-58
2022/04/30 03:15:27;;;;;;;56.00;32.28;;;;;;;4.34;65.96;101150.49;2081969;85;30912;-58
2022/04/30 03:21:49;;;;;;;58.00;32.33;;;;;;;4.33;66.01;101152.70;2082113;85;29900;-58
2022/04/30 03:24:51;;;;;;;56.98;29.72;;;;;;;4.33;66.16;101143.42;2082347;85;31990;-58
2022/04/30 03:27:53;;;;;;;55.78;29.55;;;;;;;4.34;66.15;101135.04;2082037;85;34179;-66
2022/04/30 03:30:55;;;;;;;60.12;32.15;;;;;;;4.37;66.18;101138.99;2082405;85;30571;-62
2022/04/30 03:33:57;;;;;;;56.08;32.23;;;;;;;4.37;66.46;101135.02;2082108;85;27707;-66
2022/04/30 03:37:00;;;;;;;60.33;33.73;;;;;;;4.38;66.50;101132.33;2082093;85;29908;-59
2022/04/30 03:40:04;;;;;;;61.02;31.95;;;;;;;4.40;66.69;101130.97;2081936;85;31925;-58
2022/04/30 03:43:07;;;;;;;67.27;30.57;;;;;;;4.41;66.73;101132.73;2082558;85;33661;-58
2022/04/30 03:46:09;;;;;;;60.67;30.88;;;;;;;4.43;67.00;101128.30;2082234;85;29634;-59
2022/04/30 03:49:12;;;;;;;59.23;30.35;;;;;;;4.47;67.18;101125.19;2082022;85;28357;-58
2022/04/30 03:52:13;;;;;;;56.42;30.60;;;;;;;4.51;67.07;101132.19;2082290;85;29078;-58
2022/04/30 03:55:18;;;;;;;58.52;30.55;;;;;;;4.53;67.22;101125.99;2082326;85;31185;-57
2022/04/30 03:58:22;;;;;;;54.42;28.92;;;;;;;4.59;67.15;101125.47;2082057;85;34161;-58
2022/04/30 04:01:24;;;;;;;54.75;29.82;;;;;;;4.63;67.17;101122.78;2081987;85;29697;-58
2022/04/30 04:04:27;;;;;;;57.40;29.87;;;;;;;4.69;67.20;101125.34;2082345;85;27721;-58
2022/04/30 04:07:30;;;;;;;48.55;27.70;;;;;;;4.75;67.17;101116.42;2082058;85;28821;-57
2022/04/30 04:10:32;;;;;;;55.78;30.08;;;;;;;4.83;67.22;101124.30;2082339;85;32228;-59
2022/04/30 04:20:19;;;;;;;60.40;30.57;;;;;;;5.04;67.15;101130.23;2082465;85;27680;-58
2022/04/30 04:23:22;;;;;;;58.55;31.33;;;;;;;5.11;67.19;101130.59;2081870;85;30019;-59
2022/04/30 04:26:27;;;;;;;57.33;29.92;;;;;;;5.18;67.07;101128.27;2081578;85;32124;-60
2022/04/30 04:29:29;;;;;;;37.95;21.70;;;;;;;5.26;67.20;101130.38;2082195;85;37148;-59
2022/04/30 04:32:31;;;;;;;56.65;31.62;;;;;;;5.22;67.13;101102.53;2082185;85;30518;-58
2022/04/30 04:35:33;;;;;;;59.05;33.10;;;;;;;5.42;66.98;101134.14;2082092;85;27739;-59
2022/04/30 04:38:35;;;;;;;51.42;29.50;;;;;;;5.50;66.98;101136.69;2082574;85;29291;-61
2022/04/30 04:41:38;;;;;;;59.63;32.67;;;;;;;5.58;66.71;101130.78;2081913;85;31098;-58
2022/04/30 04:44:40;;;;;;;57.20;31.12;;;;;;;5.66;66.70;101131.99;2082790;85;33484;-59
2022/04/30 04:47:45;;;;;;;57.33;31.17;;;;;;;5.70;66.58;101127.95;2082251;85;29769;-59
2022/04/30 04:50:47;;;;;;;58.73;30.40;;;;;;;5.81;66.70;101129.08;2082434;85;27705;-58
2022/04/30 04:53:50;;;;;;;59.00;31.33;;;;;;;5.92;66.88;101131.57;2082125;85;29263;-59
2022/04/30 04:56:52;;;;;;;51.77;29.18;;;;;;;5.99;66.47;101130.58;2082232;85;31014;-57
2022/04/30 04:59:54;;;;;;;54.50;30.27;;;;;;;6.10;66.61;101130.86;2082427;85;33567;-59
2022/04/30 05:02:56;;;;;;;56.58;29.65;;;;;;;6.17;66.28;101127.20;2082379;85;29647;-59
2022/04/30 05:06:00;;;;;;;59.40;30.20;;;;;;;6.27;66.13;101125.25;2082436;85;28048;-59
2022/04/30 05:09:02;;;;;;;53.17;29.48;;;;;;;6.33;66.02;101123.36;2072174;85;29485;-58
2022/04/30 05:12:07;;;;;;;55.83;29.00;;;;;;;6.43;65.87;101124.50;2018606;88;32290;-59
2022/04/30 05:15:09;;;;;;;52.33;28.47;;;;;;;6.50;65.77;101124.34;2071347;85;33728;-59
2022/04/30 05:18:14;;;;;;;53.48;25.35;;;;;;;6.59;65.66;101127.28;2053300;86;30572;-58
2022/04/30 05:21:16;;;;;;;50.25;26.70;;;;;;;6.69;65.67;101126.65;2018392;88;27757;-58
2022/04/30 05:24:18;;;;;;;44.75;26.07;;;;;;;6.78;65.48;101126.92;2071282;86;29902;-59
2022/04/30 05:27:21;;;;;;;43.08;25.30;;;;;;;6.89;65.43;101124.03;2053177;86;31927;-59
2022/04/30 05:30:24;;;;;;;40.98;23.10;;;;;;;6.99;65.27;101117.59;2071212;85;33749;-57
2022/04/30 05:33:26;;;;;;;45.05;24.12;;;;;;;7.11;65.12;101125.34;1953156;90;29175;-58
2022/04/30 05:36:28;;;;;;;38.02;23.18;;;;;;;7.21;65.07;101115.33;2005647;88;28112;-58
2022/04/30 05:39:30;;;;;;;45.98;22.93;;;;;;;7.31;64.67;101121.33;1985737;89;29943;-58
2022/04/30 05:42:32;;;;;;;47.67;22.35;;;;;;;7.41;64.55;101127.33;1985946;89;31177;-58
2022/04/30 05:45:34;;;;;;;43.15;22.98;;;;;;;7.49;64.21;101132.48;1986020;89;33578;-59
2022/04/30 05:48:36;;;;;;;42.70;23.65;;;;;;;7.55;64.06;101131.02;2007156;88;30908;-59
2022/04/30 05:51:44;;;;;;;42.53;23.50;;;;;;;7.67;63.82;101131.19;1985726;89;27915;-59
2022/04/30 05:54:47;;;;;;;46.68;24.35;;;;;;;7.78;63.64;101127.79;1985831;89;28744;-59
2022/04/30 05:57:50;;;;;;;40.35;23.05;;;;;;;7.90;63.61;101131.48;2002650;88;31647;-59
2022/04/30 06:00:52;;;;;;;51.90;24.43;;;;;;;8.03;63.33;101136.05;2018061;88;33970;-59
2022/04/30 06:03:54;;;;;;;53.30;27.17;;;;;;;8.16;63.34;101127.28;2070837;86;30572;-58
2022/04/30 06:06:56;;;;;;;45.33;22.35;;;;;;;8.29;63.12;101129.62;2052999;84;27829;-58
2022/04/30 06:09:58;;;;;;;40.75;21.85;;;;;;;8.45;63.20;101128.72;2018512;88;29566;-57
2022/04/30 06:13:01;;;;;;;40.28;21.00;;;;;;;8.53;63.08;101137.45;2053277;86;31711;-58
2022/04/30 06:16:04;;;;;;;42.08;20.75;;;;;;;8.59;62.75;101137.30;2085883;85;33777;-59
2022/04/30 06:19:06;;;;;;;36.28;19.85;;;;;;;8.67;62.59;101130.40;2085933;85;29664;-59
2022/04/30 06:22:08;;;;;;;32.55;19.75;;;;;;;8.80;62.50;101132.23;2085807;85;27528;-57
2022/04/30 06:25:11;;;;;;;30.62;19.65;;;;;;;8.93;62.36;101126.98;2085646;85;30074;-59
2022/04/30 06:28:16;;;;;;;36.90;20.05;;;;;;;9.13;62.52;101129.48;2085580;85;32432;-59
2022/04/30 06:31:18;;;;;;;33.95;19.85;;;;;;;9.38;62.10;101133.62;2085578;85;34181;-59
2022/04/30 06:34:21;;;;;;;37.53;21.90;;;;;;;9.64;61.76;101129.70;2085582;85;30081;-58
2022/04/30 06:37:25;;;;;;;33.98;19.48;;;;;;;9.94;61.92;101125.16;2086057;85;28286;-58
2022/04/30 06:40:27;;;;;;;36.70;21.17;;;;;;;10.28;61.72;101127.12;2085823;85;29756;-58
2022/04/30 06:43:29;;;;;;;37.50;20.10;;;;;;;10.60;61.12;101126.02;2085649;85;31920;-58
2022/04/30 06:46:32;;;;;;;39.95;22.13;;;;;;;10.89;60.63;101116.48;2085630;85;34203;-58
2022/04/30 06:49:34;;;;;;;39.50;21.52;;;;;;;11.22;60.41;101130.88;2085990;85;29644;-58
2022/04/30 06:59:10;;;;;;;34.40;19.95;;;;;;;12.02;58.78;101130.80;1970784;90;32292;-59
2022/04/30 07:02:19;;;;;;;35.23;22.62;;;;;;;12.36;58.49;101126.66;1953524;91;33132;-59
2022/04/30 07:05:22;;;;;;;34.58;20.48;;;;;;;12.63;57.98;101126.84;1984992;89;30193;-58
2022/04/30 07:08:24;;;;;;;35.15;20.15;;;;;;;12.82;57.45;101134.48;1994441;88;27858;-60
2022/04/30 07:11:27;;;;;;;34.40;20.15;;;;;;;13.05;57.47;101134.76;2026758;87;30194;-58
2022/04/30 07:14:28;;;;;;;34.25;21.07;;;;;;;13.26;56.88;101134.70;2027009;87;31883;-58
2022/04/30 07:17:30;;;;;;;35.50;21.30;;;;;;;13.47;56.57;101139.55;2026757;87;34188;-59
2022/04/30 07:20:32;;;;;;;35.35;22.30;;;;;;;13.60;55.77;101125.03;2026842;87;30819;-58
2022/04/30 07:23:34;;;;;;;38.53;23.05;;;;;;;13.78;55.54;101125.92;2027190;87;27749;-58
2022/04/30 07:26:36;;;;;;;34.40;21.87;;;;;;;13.85;54.67;101124.28;2027134;87;29077;-59
2022/04/30 07:29:40;;;;;;;35.23;20.80;;;;;;;13.95;54.45;101123.75;2026766;87;27764;-59
2022/04/30 07:32:42;;;;;;;40.20;23.50;;;;;;;14.03;53.85;101125.16;2055806;85;34032;-58
2022/04/30 07:35:45;;;;;;;33.65;21.52;;;;;;;14.17;53.66;101119.08;2092277;85;30060;-58
2022/04/30 07:38:47;;;;;;;41.40;22.15;;;;;;;14.46;53.86;101123.41;2091815;84;28285;-58
2022/04/30 07:41:49;;;;;;;29.75;19.95;;;;;;;14.78;54.01;101122.20;2091554;84;29554;-58
2022/04/30 07:44:51;;;;;;;33.25;20.00;;;;;;;15.09;52.65;101118.70;2091734;85;32213;-59
2022/04/30 07:47:55;;;;;;;30.50;19.40;;;;;;;15.43;52.62;101123.56;2091744;84;34175;-59
2022/04/30 07:51:01;;;;;;;39.10;19.27;;;;;;;15.78;52.20;101117.06;2092371;85;30688;-60
2022/04/30 07:54:02;;;;;;;31.52;20.45;;;;;;;16.18;50.96;101120.16;2091939;83;28256;-59
2022/04/30 07:57:05;;;;;;;33.30;19.07;;;;;;;16.45;50.61;101123.48;2091486;84;29916;-59
2022/04/30 08:00:11;;;;;;;31.17;19.60;;;;;;;16.66;50.32;101112.31;2092050;84;31068;-59
2022/04/30 08:03:14;;;;;;;33.05;21.00;;;;;;;16.97;50.06;101115.81;2092257;85;32631;-59
2022/04/30 08:06:16;;;;;;;33.33;20.20;;;;;;;17.34;49.68;101116.62;2092224;84;30037;-59
2022/04/30 08:09:19;;;;;;;33.38;18.95;;;;;;;17.61;48.67;101107.17;2091830;84;27689;-60
2022/04/30 08:12:22;;;;;;;29.30;18.55;;;;;;;17.94;48.73;101110.45;2089290;84;30032;-59
2022/04/30 08:15:26;;;;;;;34.60;19.95;;;;;;;18.55;47.89;101108.56;2089595;85;31749;-59
2022/04/30 08:18:28;;;;;;;32.80;18.73;;;;;;;19.24;47.55;101105.47;2089240;85;34030;-59
2022/04/30 08:21:30;;;;;;;27.32;16.25;;;;;;;19.89;46.63;101113.77;2089715;84;30748;-60
2022/04/30 08:24:32;;;;;;;24.77;14.78;;;;;;;20.61;45.08;101109.64;2089518;84;27734;-59
2022/04/30 08:27:35;;;;;;;27.00;15.00;;;;;;;21.30;44.66;101114.13;2091796;84;30071;-67
2022/04/30 08:30:38;;;;;;;23.10;14.55;;;;;;;21.81;43.42;101111.80;2092120;85;31069;-64
2022/04/30 08:33:40;;;;;;;27.58;15.38;;;;;;;22.09;42.41;101106.72;2092171;85;33770;-69
2022/04/30 08:36:44;;;;;;;21.90;14.87;;;;;;;22.22;42.21;101112.84;2091947;85;29653;-66
2022/04/30 08:39:48;;;;;;;22.27;13.32;;;;;;;22.36;41.29;101103.47;2092674;84;27735;-63
2022/04/30 08:42:52;;;;;;;16.37;11.38;;;;;;;22.51;40.72;101090.35;2092470;84;29320;-69
2022/04/30 08:45:55;;;;;;;15.40;11.63;;;;;;;22.70;40.04;101092.34;2091967;85;31942;-67
2022/04/30 08:48:57;;;;;;;17.20;10.40;;;;;;;22.89;39.39;101094.28;2092179;85;34225;-60
2022/04/30 08:52:01;;;;;;;20.08;11.33;;;;;;;22.88;38.28;101089.83;2092304;84;29638;-66
2022/04/30 08:55:10;;;;;;;16.23;10.93;;;;;;;22.72;36.61;101085.36;2092438;85;36743;-69
2022/04/30 08:58:12;;;;;;;17.77;10.85;;;;;;;22.53;36.43;101089.72;2092250;84;29452;-62
2022/04/30 09:01:14;;;;;;;14.78;10.08;;;;;;;22.56;37.35;101085.88;2092250;85;32312;-60
2022/04/30 09:04:18;;;;;;;20.02;10.08;;;;;;;22.73;37.38;101087.98;2092182;85;33920;-60
2022/04/30 09:07:24;;;;;;;17.60;10.32;;;;;;;22.75;36.54;101081.00;2092545;84;29713;-73
2022/04/30 09:10:33;;;;;;;17.77;9.45;;;;;;;22.69;35.49;101076.95;2091770;84;28009;-68
2022/04/30 09:13:46;;;;;;;15.32;9.83;;;;;;;22.58;34.83;101077.90;2091846;84;28872;-72
2022/04/30 09:16:50;;;;;;;13.30;9.15;;;;;;;22.64;35.79;101077.00;2092022;85;31068;-62
2022/04/30 09:19:59;;;;;;;12.93;9.35;;;;;;;22.61;34.31;101074.91;2091919;85;33886;-68
2022/04/30 09:23:02;;;;;;;14.90;8.45;;;;;;;22.41;34.22;101074.39;2092080;85;29716;-62
2022/04/30 09:26:05;;;;;;;11.80;7.22;;;;;;;22.36;33.92;101074.80;2091958;84;27707;-72
2022/04/30 09:29:22;;;;;;;17.95;13.75;;;;;;;22.23;31.93;101067.33;2091794;84;29122;-69
2022/04/30 09:32:28;;;;;;;12.73;7.00;;;;;;;21.92;32.92;101066.73;2092131;83;30999;-59
2022/04/30 09:38:55;;;;;;;14.25;7.50;;;;;;;21.73;32.32;101076.11;2091778;85;31692;-60
2022/04/30 09:42:02;;;;;;;15.30;7.22;;;;;;;21.47;32.11;101064.16;2091876;84;27748;-61
2022/04/30 09:45:06;;;;;;;15.20;7.62;;;;;;;21.37;31.94;101073.09;2092177;84;28813;-60
2022/04/30 09:54:56;;;;;;;10.65;6.35;;;;;;;21.42;31.65;101063.19;2091796;85;30770;-60
2022/04/30 09:58:02;;;;;;;15.93;8.10;;;;;;;21.33;31.59;101063.46;2092192;84;27601;-61
2022/04/30 10:01:07;;;;;;;11.73;8.00;;;;;;;21.26;31.63;101058.14;2092052;84;30305;-60
2022/04/30 10:04:14;;;;;;;10.72;7.08;;;;;;;21.24;31.63;101056.03;2092198;84;31849;-61
2022/04/30 10:07:20;;;;;;;11.43;6.28;;;;;;;21.20;31.18;101061.36;2092143;84;33049;-60
2022/04/30 10:10:27;;;;;;;10.55;6.08;;;;;;;21.13;31.17;101047.89;2081345;85;30752;-59
2022/04/30 10:13:40;;;;;;;7.78;5.15;;;;;;;21.02;29.61;101054.22;2078990;85;27730;-60
2022/04/30 10:16:55;;;;;;;8.40;5.62;;;;;;;20.84;30.87;101048.43;2006420;88;29761;-61
2022/04/30 10:20:04;;;;;;;9.25;5.12;;;;;;;20.87;30.74;101044.95;2004547;88;32522;-60
2022/04/30 10:23:06;;;;;;;11.03;5.28;;;;;;;20.85;31.02;101041.99;2005594;88;32962;-60
2022/04/30 10:26:08;;;;;;;8.80;4.65;;;;;;;20.88;31.19;101036.27;2007021;88;29698;-59
2022/04/30 10:29:12;;;;;;;9.83;4.65;;;;;;;20.90;29.60;101031.09;2006636;88;28190;-60
2022/04/30 10:32:25;;;;;;;6.83;4.72;;;;;;;20.84;29.93;101038.90;2006704;88;28651;-60
2022/04/30 10:35:34;;;;;;;7.15;4.70;;;;;;;20.74;29.99;101025.12;1936129;91;32015;-60
2022/04/30 10:38:37;;;;;;;5.67;4.42;;;;;;;20.75;29.59;101029.11;1936434;91;32985;-60
2022/04/30 10:41:45;;;;;;;5.40;3.90;;;;;;;20.73;30.17;101022.03;1936518;91;29991;-61
2022/04/30 10:44:52;;;;;;;8.50;3.85;;;;;;;20.83;30.37;101024.39;1936631;91;27880;-60
2022/04/30 10:47:56;;;;;;;5.45;3.92;;;;;;;20.81;29.83;101023.66;1936142;91;28653;-60
2022/04/30 10:51:16;;;;;;;5.10;3.75;;;;;;;20.76;29.54;101027.27;1912244;91;31101;-59
2022/04/30 10:54:19;;;;;;;6.28;3.40;;;;;;;20.76;29.91;101019.09;1956823;90;32658;-60
2022/04/30 10:57:22;;;;;;;7.10;3.80;;;;;;;20.53;28.05;101018.17;1970149;90;29086;-61
2022/04/30 11:00:24;;;;;;;6.08;3.27;;;;;;;20.34;28.30;101022.41;1970214;90;27756;-59
2022/04/30 11:03:28;;;;;;;7.42;3.17;;;;;;;20.21;28.91;101017.06;1949879;90;28662;-61
2022/04/30 11:06:32;;;;;;;6.28;3.55;;;;;;;20.25;29.57;101005.43;1970229;90;31730;-59
2022/04/30 11:09:43;;;;;;;6.72;4.03;;;;;;;20.43;29.18;101009.91;1969477;89;33151;-60
2022/04/30 11:12:46;;;;;;;6.03;3.33;;;;;;;20.50;28.97;101004.33;2043381;85;29857;-59
2022/04/30 11:15:48;;;;;;;5.08;3.47;;;;;;;20.40;28.78;101002.84;2092297;84;27773;-59
2022/04/30 11:19:10;;;;;;;8.58;3.35;;;;;;;20.42;29.19;100992.70;2091807;85;29952;-58
2022/04/30 11:22:13;;;;;;;7.78;3.72;;;;;;;20.41;28.86;100988.75;2092212;85;30717;-59
2022/04/30 11:25:14;;;;;;;12.10;3.62;;;;;;;20.33;29.24;100991.58;2092083;85;33821;-58
2022/04/30 11:28:17;;;;;;;5.87;3.75;;;;;;;20.39;29.21;100986.14;2091780;84;30473;-58
2022/04/30 11:31:20;;;;;;;10.25;4.10;;;;;;;20.36;29.15;100982.30;2092162;85;27746;-58
2022/04/30 11:34:23;;;;;;;8.33;4.20;;;;;;;20.20;28.91;100984.03;2092454;84;28648;-58
2022/04/30 11:37:27;;;;;;;7.72;4.45;;;;;;;20.11;28.84;100982.91;2091838;85;31720;-59
2022/04/30 11:40:31;;;;;;;8.10;3.70;;;;;;;20.03;28.90;100982.63;2092023;85;33771;-60
2022/04/30 11:43:33;;;;;;;6.87;4.53;;;;;;;19.86;28.59;100977.99;2091848;84;35294;-59
2022/04/30 11:46:42;;;;;;;7.60;3.80;;;;;;;19.85;28.61;100980.84;2092197;85;27679;-61
2022/04/30 11:49:47;;;;;;;5.60;3.50;;;;;;;19.78;28.74;100975.03;2092056;84;29320;-59
2022/04/30 11:52:50;;;;;;;8.10;4.08;;;;;;;19.75;28.55;100976.62;2092022;85;31120;-59
2022/04/30 11:55:53;;;;;;;8.90;4.10;;;;;;;19.68;28.61;100972.16;2091566;85;34212;-59
2022/04/30 11:58:55;;;;;;;7.85;3.83;;;;;;;19.66;28.87;100965.11;2091710;85;31766;-72
2022/04/30 12:02:03;;;;;;;6.53;3.65;;;;;;;19.69;29.05;100962.16;2119596;83;27761;-70
2022/04/30 12:05:07;;;;;;;3.80;3.02;;;;;;;19.65;28.56;100957.44;2092046;84;29552;-64
2022/04/30 12:08:09;;;;;;;12.23;3.45;;;;;;;19.59;28.54;100943.83;2092412;84;31026;-71
2022/04/30 12:11:12;;;;;;;5.70;4.05;;;;;;;19.53;28.58;100947.02;2090474;84;32962;-72
2022/04/30 12:14:14;;;;;;;5.33;3.25;;;;;;;19.49;28.47;100942.83;2086401;85;30359;-60
2022/04/30 12:17:17;;;;;;;9.10;3.60;;;;;;;19.41;28.30;100940.70;2086504;85;27707;-72
2022/04/30 12:27:28;;;;;;;6.40;3.77;;;;;;;19.48;28.57;100923.91;2086140;85;34164;-63
2022/04/30 12:30:33;;;;;;;8.35;3.62;;;;;;;19.34;27.96;100933.14;2086509;84;30436;-60
2022/04/30 12:33:43;;;;;;;8.48;3.83;;;;;;;19.21;28.25;100923.69;2086547;84;27629;-61
2022/04/30 12:36:55;;;;;;;9.08;3.17;;;;;;;19.19;28.54;100917.51;2086115;83;28687;-58
2022/04/30 12:39:58;;;;;;;5.47;3.30;;;;;;;19.11;28.34;100915.37;2084822;85;31871;-68
2022/04/30 12:43:00;;;;;;;9.70;3.42;;;;;;;19.06;28.37;100913.48;2086055;85;33073;-57
2022/04/30 12:46:04;;;;;;;4.70;2.60;;;;;;;19.04;28.76;100917.70;2086678;85;30313;-59
2022/04/30 12:49:08;;;;;;;4.85;2.72;;;;;;;19.02;28.43;100910.16;2086453;85;27617;-60
2022/04/30 12:52:10;;;;;;;6.62;3.83;;;;;;;19.03;28.13;100902.89;2086349;85;28680;-59
2022/04/30 12:55:13;;;;;;;9.50;3.65;;;;;;;19.09;28.54;100895.61;2086041;84;31900;-59
2022/04/30 12:58:17;;;;;;;5.67;3.40;;;;;;;19.24;28.71;100896.30;2086445;84;33144;-59
2022/04/30 13:01:19;;;;;;;6.05;2.95;;;;;;;19.24;28.46;100894.44;2086079;85;30487;-61
2022/04/30 13:04:22;;;;;;;7.15;3.37;;;;;;;19.22;28.78;100889.61;2086479;85;27745;-58
2022/04/30 13:07:25;;;;;;;5.33;3.10;;;;;;;19.32;28.87;100894.35;2086089;85;28829;-57
2022/04/30 13:13:48;;;;;;;5.92;3.08;;;;;;;19.41;28.54;100899.05;2091875;84;34462;-59
2022/04/30 13:16:52;;;;;;;5.47;2.65;;;;;;;19.43;27.42;100888.94;2092049;85;30324;-59
2022/04/30 13:19:54;;;;;;;7.75;3.27;;;;;;;19.42;28.02;100891.28;2091931;85;27646;-59
2022/04/30 13:22:57;;;;;;;5.22;2.40;;;;;;;19.38;28.14;100885.70;2091915;84;28876;-59
2022/04/30 13:26:03;;;;;;;6.37;3.20;;;;;;;19.39;28.83;100881.53;2091850;84;31984;-70
2022/04/30 13:29:10;;;;;;;5.97;2.92;;;;;;;19.40;27.92;100879.19;2092182;85;32936;-60
2022/04/30 13:32:12;;;;;;;6.33;2.62;;;;;;;19.27;27.85;100873.83;2092703;83;30344;-61
2022/04/30 13:35:19;;;;;;;6.90;3.08;;;;;;;19.19;28.29;100871.33;2092094;85;27692;-59
2022/04/30 13:38:28;;;;;;;4.72;2.95;;;;;;;19.24;28.77;100870.49;2092258;85;33424;-59
2022/04/30 13:41:31;;;;;;;5.17;2.15;;;;;;;19.20;28.21;100869.84;2092283;85;30997;-57
2022/04/30 13:44:33;;;;;;;6.15;2.50;;;;;;;19.25;28.41;100869.52;2091863;84;34213;-58
2022/04/30 13:47:36;;;;;;;4.95;3.08;;;;;;;19.22;27.33;100862.95;2091908;84;30876;-59
2022/04/30 13:50:39;;;;;;;7.37;3.60;;;;;;;19.18;27.92;100861.45;2092436;84;27724;-59
2022/04/30 13:53:42;;;;;;;7.00;3.05;;;;;;;19.23;28.31;100861.46;2091967;84;29581;-59
2022/04/30 13:56:45;;;;;;;6.28;3.20;;;;;;;19.35;28.34;100864.23;2092275;84;31895;-59
2022/04/30 13:59:48;;;;;;;7.72;2.75;;;;;;;19.43;28.27;100854.50;2092265;85;32963;-58
2022/04/30 14:02:50;;;;;;;4.97;2.47;;;;;;;19.52;28.16;100850.19;2092276;84;29714;-59
2022/04/30 14:05:54;;;;;;;5.37;2.83;;;;;;;19.64;28.26;100848.84;2092283;85;27611;-58
2022/04/30 14:08:56;;;;;;;7.35;3.00;;;;;;;19.73;28.08;100850.34;2092137;84;28654;-61
2022/04/30 14:12:00;;;;;;;6.75;3.05;;;;;;;19.76;28.02;100853.80;2080728;84;31887;-59
2022/04/30 14:15:04;;;;;;;5.70;2.77;;;;;;;19.76;28.37;100841.06;2078926;85;33737;-60
2022/04/30 14:18:16;;;;;;;7.40;2.87;;;;;;;19.78;27.82;100844.52;2079424;85;29573;-59
2022/04/30 14:21:19;;;;;;;9.48;2.90;;;;;;;19.63;27.61;100826.72;2078824;85;27632;-58
2022/04/30 14:24:24;;;;;;;4.55;2.83;;;;;;;19.55;27.62;100847.72;2078854;85;28785;-59
2022/04/30 14:27:27;;;;;;;9.68;3.08;;;;;;;19.34;27.76;100847.56;2079205;85;32146;-59
2022/04/30 14:30:29;;;;;;;6.40;2.70;;;;;;;19.19;27.81;100848.24;2078951;85;33771;-60
2022/04/30 14:33:32;;;;;;;3.92;2.92;;;;;;;19.01;27.97;100849.19;2078613;85;31722;-58
2022/04/30 14:36:35;;;;;;;10.32;3.00;;;;;;;18.89;28.21;100845.02;2078823;85;27667;-61
2022/04/30 14:39:41;;;;;;;4.62;2.77;;;;;;;18.86;28.39;100845.27;2079025;85;28653;-62
2022/04/30 14:42:44;;;;;;;8.55;2.72;;;;;;;18.81;28.16;100847.45;2078727;85;32254;-62
2022/04/30 14:45:47;;;;;;;7.67;2.85;;;;;;;18.71;28.10;100851.83;2078936;85;34173;-60
2022/04/30 14:48:50;;;;;;;10.10;3.72;;;;;;;18.65;28.07;100840.47;2078977;85;29645;-60
2022/04/30 14:51:54;;;;;;;7.00;4.03;;;;;;;18.57;28.37;100832.53;2079129;85;27674;-58
2022/04/30 14:54:57;;;;;;;6.72;2.98;;;;;;;18.60;28.36;100837.73;2079054;85;28637;-58